Time;durP1;ratioP1;P1;durP2;ratioP2;P2;SDS_P1;SDS_P2;PMS_P1;PMS_P2;Temp;Humidity;BMP_temperature;BMP_pressure;BME280_temperature;BME280_humidity;BME280_pressure;Samples;Min_cycle;Max_cycle;Signal;HPM_P1;HPM_P2
2022/08/18 00:01:13;;;;;;;10.32;8.45;;;;;;;27.41;44.14;100387.85;2232051;75;50376;-74
2022/08/18 00:04:15;;;;;;;12.33;8.25;;;;;;;27.48;44.05;100392.05;2311213;77;50345;-74
2022/08/18 00:07:20;;;;;;;12.68;8.65;;;;;;;27.53;43.84;100385.87;2279124;77;50393;-75
2022/08/18 00:10:23;;;;;;;9.53;8.63;;;;;;;27.50;43.89;100384.47;2310600;77;51528;-76
2022/08/18 00:13:25;;;;;;;10.30;8.63;;;;;;;27.46;44.07;100380.63;2279274;77;51453;-77
2022/08/18 00:16:27;;;;;;;13.32;8.80;;;;;;;27.46;44.03;100375.19;2310381;77;51360;-77
2022/08/18 00:19:29;;;;;;;11.08;8.95;;;;;;;27.31;44.52;100383.11;2253992;77;49355;-77
2022/08/18 00:22:31;;;;;;;11.30;8.80;;;;;;;27.32;44.41;100374.69;2279298;77;50715;-75
2022/08/18 00:25:34;;;;;;;12.37;9.15;;;;;;;27.36;44.35;100376.39;2254214;77;51592;-76
2022/08/18 00:28:36;;;;;;;10.90;8.58;;;;;;;27.28;44.61;100379.50;2309224;75;50244;-76
2022/08/18 00:31:39;;;;;;;10.72;8.60;;;;;;;27.39;44.33;100375.89;2254843;76;49630;-76
2022/08/18 00:34:41;;;;;;;11.60;8.93;;;;;;;27.39;44.22;100373.72;2280718;77;51040;-76
2022/08/18 00:37:43;;;;;;;10.65;8.38;;;;;;;27.40;44.31;100368.02;2255587;76;53700;-76
2022/08/18 00:40:48;;;;;;;10.40;9.20;;;;;;;27.45;44.10;100365.38;2312313;77;51535;-76
2022/08/18 00:43:51;;;;;;;12.73;9.18;;;;;;;27.49;44.09;100362.45;2280862;75;49478;-75
2022/08/18 00:46:53;;;;;;;10.48;8.25;;;;;;;27.48;44.03;100367.59;2312200;75;50192;-74
2022/08/18 00:49:55;;;;;;;10.93;8.48;;;;;;;27.47;44.11;100363.23;2281187;77;50357;-75
2022/08/18 00:53:00;;;;;;;9.88;8.83;;;;;;;27.45;44.07;100360.48;2312361;76;50561;-75
2022/08/18 00:56:09;;;;;;;10.03;9.13;;;;;;;27.45;44.15;100361.30;2311510;76;51569;-76
2022/08/18 00:59:17;;;;;;;9.95;8.95;;;;;;;27.32;44.28;100363.82;2274090;76;51590;-76
2022/08/18 01:02:26;;;;;;;18.65;8.58;;;;;;;27.33;44.25;100361.41;2284260;76;50715;-75
2022/08/18 01:05:32;;;;;;;10.88;9.00;;;;;;;27.41;44.00;100357.45;2239817;78;50849;-75
2022/08/18 01:08:34;;;;;;;11.68;9.10;;;;;;;27.48;43.89;100356.72;2211356;78;50666;-76
2022/08/18 01:11:37;;;;;;;9.60;8.33;;;;;;;27.33;44.22;100350.55;2243604;78;50293;-76
2022/08/18 01:14:39;;;;;;;10.32;8.55;;;;;;;27.21;44.64;100353.06;2243538;78;51427;-77
2022/08/18 01:27:55;;;;;;;16.15;9.33;;;;;;;27.40;44.19;100358.50;2243986;78;22542;-76
2022/08/18 01:30:59;;;;;;;10.90;9.73;;;;;;;27.23;44.56;100359.05;2219123;78;50274;-74
2022/08/18 01:34:01;;;;;;;13.22;9.68;;;;;;;27.23;44.52;100357.69;2213396;79;49817;-75
2022/08/18 01:37:04;;;;;;;10.18;8.98;;;;;;;27.10;44.89;100352.03;2213631;79;51357;-75
2022/08/18 01:40:08;;;;;;;12.03;8.90;;;;;;;26.97;45.22;100357.79;2213921;79;50209;-74
2022/08/18 01:43:10;;;;;;;13.53;10.00;;;;;;;27.03;45.15;100351.39;2214574;79;50214;-74
2022/08/18 01:46:12;;;;;;;11.70;9.40;;;;;;;26.96;45.40;100356.97;2245177;79;50220;-75
2022/08/18 01:49:15;;;;;;;11.28;9.75;;;;;;;26.78;45.76;100352.59;2213750;79;49544;-73
2022/08/18 01:52:21;;;;;;;13.72;10.30;;;;;;;26.90;45.52;100341.68;2213930;79;51460;-73
2022/08/18 01:55:25;;;;;;;10.65;9.03;;;;;;;26.82;45.74;100344.77;2245436;79;50172;-76
2022/08/18 01:58:27;;;;;;;12.23;10.18;;;;;;;26.76;45.85;100337.62;2245645;79;22388;-76
2022/08/18 02:01:29;;;;;;;10.35;9.25;;;;;;;26.83;45.73;100339.11;2309220;76;51513;-76
2022/08/18 02:04:32;;;;;;;14.23;10.28;;;;;;;26.77;45.82;100336.55;2329694;76;51625;-75
2022/08/18 02:07:34;;;;;;;10.03;9.18;;;;;;;26.65;46.02;100337.45;2341533;75;50260;-75
2022/08/18 02:10:37;;;;;;;11.22;10.03;;;;;;;26.71;45.84;100333.73;2341707;76;50358;-75
2022/08/18 02:13:39;;;;;;;12.53;9.33;;;;;;;26.72;45.89;100323.73;2273406;76;50046;-75
2022/08/18 02:16:41;;;;;;;12.35;9.73;;;;;;;26.81;45.62;100320.06;2321715;76;50664;-75
2022/08/18 02:19:45;;;;;;;11.03;9.63;;;;;;;26.80;45.55;100319.79;2321916;76;51546;-75
2022/08/18 02:22:47;;;;;;;14.05;9.85;;;;;;;26.82;45.49;100325.77;2321850;76;49268;-75
2022/08/18 02:25:49;;;;;;;13.30;9.73;;;;;;;26.87;45.39;100316.36;2321611;76;52201;-73
2022/08/18 02:28:51;;;;;;;10.55;9.50;;;;;;;26.83;45.43;100315.22;2341564;76;50131;-75
2022/08/18 02:31:54;;;;;;;11.93;9.80;;;;;;;26.75;45.70;100311.56;2318551;75;51781;-75
2022/08/18 02:34:56;;;;;;;12.80;10.60;;;;;;;26.67;45.88;100314.14;2309050;76;49980;-74
2022/08/18 02:38:02;;;;;;;14.13;9.28;;;;;;;26.58;46.09;100306.92;2233345;77;49488;-75
2022/08/18 02:41:05;;;;;;;12.80;10.45;;;;;;;26.67;45.88;100314.96;2294567;76;51924;-76
2022/08/18 02:44:08;;;;;;;12.50;10.38;;;;;;;26.66;45.88;100316.55;2328517;76;50236;-76
2022/08/18 02:47:10;;;;;;;12.25;9.73;;;;;;;26.65;45.94;100312.20;2295668;76;51480;-75
2022/08/18 02:50:13;;;;;;;11.70;10.50;;;;;;;26.77;45.59;100318.39;2341643;76;50156;-75
2022/08/18 02:53:24;;;;;;;13.90;10.20;;;;;;;26.86;45.37;100317.44;2341638;75;51455;-75
2022/08/18 02:56:22;;;;;;;15.10;10.85;;;;;;;26.89;45.31;100311.51;2317784;76;22342;-75
2022/08/18 02:59:26;;;;;;;11.55;10.32;;;;;;;26.93;45.19;100316.75;2341587;74;50385;-74
2022/08/18 03:02:28;;;;;;;13.28;11.12;;;;;;;26.88;45.24;100318.84;2318373;76;51488;-74
2022/08/18 03:05:30;;;;;;;12.15;10.90;;;;;;;26.83;45.49;100306.53;2306117;76;50162;-75
2022/08/18 03:08:33;;;;;;;12.60;10.58;;;;;;;26.67;45.61;100307.36;2317957;76;50402;-74
2022/08/18 03:11:35;;;;;;;12.25;10.05;;;;;;;26.68;45.65;100307.09;2262292;76;49507;-74
2022/08/18 03:14:38;;;;;;;17.02;11.80;;;;;;;26.71;45.54;100312.03;2296809;76;51411;-76
2022/08/18 03:17:41;;;;;;;16.45;10.98;;;;;;;26.75;45.64;100307.48;2318218;76;51467;-76
2022/08/18 03:20:44;;;;;;;13.80;11.18;;;;;;;26.76;45.56;100321.34;2306287;76;50345;-76
2022/08/18 03:23:46;;;;;;;13.40;10.45;;;;;;;26.66;45.71;100322.80;2306409;76;50696;-75
2022/08/18 03:26:48;;;;;;;13.68;10.95;;;;;;;26.78;45.38;100320.02;2318246;75;51391;-74
2022/08/18 03:29:50;;;;;;;16.05;11.83;;;;;;;26.82;45.21;100317.63;2306247;76;51425;-75
2022/08/18 03:32:53;;;;;;;13.60;11.28;;;;;;;26.90;45.03;100324.03;2255862;78;52163;-75
2022/08/18 03:35:55;;;;;;;12.85;10.43;;;;;;;26.90;44.88;100326.20;2255291;78;49427;-72
2022/08/18 03:38:57;;;;;;;14.73;10.95;;;;;;;26.97;44.78;100320.59;2255436;78;50712;-75
2022/08/18 03:41:59;;;;;;;11.22;10.03;;;;;;;27.01;44.68;100320.40;2306597;76;50342;-75
2022/08/18 03:45:02;;;;;;;26.77;11.43;;;;;;;27.04;44.61;100325.88;2261638;77;51369;-75
2022/08/18 03:48:04;;;;;;;12.23;10.60;;;;;;;27.08;44.59;100319.70;2304256;77;51490;-75
2022/08/18 03:51:09;;;;;;;11.78;10.50;;;;;;;27.13;44.46;100328.47;2233507;77;51238;-75
2022/08/18 03:54:16;;;;;;;14.35;10.55;;;;;;;27.13;44.51;100331.19;2304732;76;53476;-75
2022/08/18 03:57:15;;;;;;;12.15;10.30;;;;;;;27.14;44.50;100335.53;2282626;77;22461;-76
2022/08/18 04:00:18;;;;;;;15.83;10.38;;;;;;;27.16;44.50;100340.19;2287030;76;50070;-75
2022/08/18 04:03:20;;;;;;;11.80;10.25;;;;;;;27.15;44.53;100338.53;2280358;75;51524;-75
2022/08/18 04:06:28;;;;;;;12.43;10.65;;;;;;;27.15;44.59;100336.66;2334958;76;51481;-74
2022/08/18 04:09:31;;;;;;;12.90;10.58;;;;;;;27.14;44.54;100339.61;2306734;76;51551;-74
2022/08/18 04:12:33;;;;;;;13.45;11.05;;;;;;;27.17;44.44;100339.11;2302866;75;50236;-77
2022/08/18 04:15:36;;;;;;;12.65;11.35;;;;;;;27.12;44.44;100341.20;2333165;75;50676;-77
2022/08/18 04:18:38;;;;;;;13.55;11.08;;;;;;;27.18;44.40;100350.31;2306911;75;52137;-74
2022/08/18 04:21:41;;;;;;;14.70;11.20;;;;;;;27.12;44.40;100345.81;2353365;75;50217;-73
2022/08/18 04:24:43;;;;;;;12.75;11.40;;;;;;;27.13;44.42;100355.09;2306909;75;50084;-73
2022/08/18 04:27:45;;;;;;;14.10;11.48;;;;;;;27.15;44.51;100351.59;2353152;75;50301;-75
2022/08/18 04:30:48;;;;;;;14.13;12.25;;;;;;;27.15;44.48;100354.31;2329240;75;50679;-73
2022/08/18 04:33:50;;;;;;;21.27;13.00;;;;;;;27.16;44.58;100351.05;2302287;76;50664;-74
2022/08/18 04:36:55;;;;;;;16.25;11.85;;;;;;;27.16;44.85;100344.27;2331376;76;51567;-73
2022/08/18 04:39:58;;;;;;;14.78;12.53;;;;;;;27.17;44.70;100345.90;2301857;76;50008;-74
2022/08/18 04:43:01;;;;;;;15.32;12.25;;;;;;;27.09;45.10;100345.78;2306208;75;50196;-74
2022/08/18 04:46:03;;;;;;;13.95;12.35;;;;;;;26.88;45.64;100339.20;2350742;75;51476;-73
2022/08/18 04:49:05;;;;;;;13.13;11.73;;;;;;;26.67;46.36;100344.81;2292666;75;50039;-74
2022/08/18 04:55:28;;;;;;;16.80;12.50;;;;;;;26.69;46.28;100341.33;2351147;75;22267;-74
2022/08/18 04:58:30;;;;;;;19.98;12.43;;;;;;;26.65;46.39;100347.48;2318337;75;49696;-74
2022/08/18 05:01:41;;;;;;;15.03;11.93;;;;;;;26.58;46.55;100349.52;2295996;77;50387;-76
2022/08/18 05:04:47;;;;;;;14.90;12.85;;;;;;;26.58;46.56;100351.70;2266819;77;49572;-75
2022/08/18 05:07:49;;;;;;;15.32;12.75;;;;;;;26.56;46.50;100353.83;2267840;77;51480;-75
2022/08/18 05:10:58;;;;;;;17.77;12.20;;;;;;;26.53;46.39;100358.39;2260573;77;51452;-76
2022/08/18 05:14:01;;;;;;;19.95;12.90;;;;;;;26.32;46.95;100360.41;2233594;77;50102;-75
2022/08/18 05:17:03;;;;;;;17.75;12.88;;;;;;;26.28;47.18;100368.18;2288559;77;51526;-75
2022/08/18 05:20:07;;;;;;;22.93;12.10;;;;;;;26.21;47.45;100362.09;2267462;77;50763;-75
2022/08/18 05:23:10;;;;;;;17.00;13.13;;;;;;;26.27;47.14;100359.23;2243013;77;50142;-75
2022/08/18 05:26:16;;;;;;;15.85;12.53;;;;;;;26.29;47.10;100361.17;2288548;77;50382;-75
2022/08/18 05:29:16;;;;;;;19.95;12.23;;;;;;;26.25;47.06;100361.35;2288332;77;22398;-74
2022/08/18 05:32:18;;;;;;;18.50;13.20;;;;;;;26.36;46.74;100364.27;2285545;76;51461;-77
2022/08/18 05:35:29;;;;;;;17.02;12.90;;;;;;;26.41;46.56;100362.50;2312654;76;51362;-74
2022/08/18 05:38:41;;;;;;;23.02;13.72;;;;;;;26.40;46.48;100367.61;2312463;76;50308;-74
2022/08/18 05:42:05;;;;;;;20.82;13.65;;;;;;;26.41;46.55;100367.07;2299306;74;50373;-77
2022/08/18 05:45:10;;;;;;;24.75;13.85;;;;;;;26.46;46.60;100369.88;2280852;77;49983;-75
2022/08/18 05:48:13;;;;;;;20.37;13.40;;;;;;;26.47;46.61;100362.87;2278515;78;50379;-75
2022/08/18 05:51:22;;;;;;;25.57;13.98;;;;;;;26.38;46.87;100367.56;2279699;78;51407;-74
2022/08/18 05:57:55;;;;;;;23.40;13.05;;;;;;;26.41;46.80;100371.14;2279663;78;22340;-75
2022/08/18 06:01:00;;;;;;;18.75;13.38;;;;;;;26.27;47.05;100375.50;2279158;77;50380;-75
2022/08/18 06:04:21;;;;;;;15.55;12.82;;;;;;;26.33;47.12;100375.60;2245203;78;50972;-74
2022/08/18 06:07:29;;;;;;;21.60;12.73;;;;;;;26.36;46.97;100380.53;2267603;78;50747;-76
2022/08/18 06:10:31;;;;;;;20.92;13.08;;;;;;;26.44;46.72;100374.75;2268612;78;51459;-75
2022/08/18 06:13:36;;;;;;;16.65;12.05;;;;;;;26.46;46.60;100382.94;2245436;78;51784;-76
2022/08/18 06:17:05;;;;;;;16.12;11.97;;;;;;;26.64;46.24;100381.95;2267995;78;50973;-76
2022/08/18 06:20:10;;;;;;;18.48;12.28;;;;;;;26.64;46.15;100389.24;2245335;78;50974;-76
2022/08/18 06:23:23;;;;;;;15.08;11.83;;;;;;;26.80;45.86;100389.02;2268513;77;50748;-75
2022/08/18 06:26:48;;;;;;;14.65;11.57;;;;;;;26.82;45.86;100396.35;2268161;78;51461;-76
2022/08/18 06:30:20;;;;;;;18.27;12.23;;;;;;;26.92;45.71;100399.25;2268784;78;50704;-75
2022/08/18 06:33:43;;;;;;;14.90;12.35;;;;;;;26.98;45.48;100410.51;2297693;76;50291;-76
2022/08/18 06:37:00;;;;;;;14.68;12.37;;;;;;;27.04;45.43;100409.52;2317404;76;50374;-77
2022/08/18 06:40:04;;;;;;;18.15;13.13;;;;;;;27.05;45.28;100400.83;2316593;76;50475;-76
2022/08/18 06:43:08;;;;;;;15.93;12.58;;;;;;;27.04;45.11;100397.30;2283691;76;51521;-76
2022/08/18 06:46:14;;;;;;;16.02;12.28;;;;;;;27.06;44.93;100398.42;2244852;78;49576;-76
2022/08/18 06:49:25;;;;;;;14.58;11.60;;;;;;;27.05;44.99;100402.19;2268582;78;50263;-77
2022/08/18 06:52:53;;;;;;;14.50;11.63;;;;;;;27.05;44.99;100398.95;2268020;78;51527;-75
2022/08/18 06:55:55;;;;;;;14.38;12.00;;;;;;;27.13;44.84;100397.19;2268210;78;51480;-78
2022/08/18 06:59:01;;;;;;;17.87;12.15;;;;;;;27.20;44.78;100397.58;2245075;78;50032;-75
2022/08/18 07:02:21;;;;;;;15.50;11.80;;;;;;;27.24;44.66;100412.33;2249948;77;51549;-78
2022/08/18 07:05:25;;;;;;;14.18;11.90;;;;;;;27.20;44.44;100403.02;2268121;78;50380;-77
2022/08/18 07:08:33;;;;;;;15.17;11.80;;;;;;;27.27;44.18;100406.39;2268873;78;50397;-77
2022/08/18 07:11:41;;;;;;;16.95;12.37;;;;;;;27.29;44.27;100411.05;2263668;76;52860;-76
2022/08/18 07:14:44;;;;;;;17.62;12.60;;;;;;;27.26;44.46;100412.38;2290087;77;22244;-76
2022/08/18 07:17:47;;;;;;;16.57;12.25;;;;;;;27.25;44.40;100409.89;2304364;75;51548;-76
2022/08/18 07:20:54;;;;;;;20.02;12.40;;;;;;;27.27;44.25;100405.03;2234042;77;51219;-77
2022/08/18 07:24:01;;;;;;;18.42;13.40;;;;;;;27.29;44.25;100401.55;2259437;77;50411;-76
2022/08/18 07:27:06;;;;;;;15.15;12.07;;;;;;;27.32;44.12;100399.14;2303829;77;50733;-77
2022/08/18 07:30:11;;;;;;;14.93;11.73;;;;;;;27.30;44.11;100404.53;2304835;77;50359;-77
2022/08/18 07:33:20;;;;;;;18.90;11.15;;;;;;;27.32;44.23;100402.40;2304877;77;51513;-78
2022/08/18 07:36:23;;;;;;;14.13;12.07;;;;;;;27.30;44.28;100397.74;2281886;76;50267;-77
2022/08/18 07:39:31;;;;;;;14.18;11.53;;;;;;;27.38;44.22;100401.39;2283139;77;50860;-77
2022/08/18 07:42:39;;;;;;;15.13;12.07;;;;;;;27.36;44.20;100404.38;2296398;76;51480;-76
2022/08/18 07:45:44;;;;;;;14.13;10.93;;;;;;;27.40;43.97;100411.49;2317476;76;50406;-77
2022/08/18 07:48:46;;;;;;;14.30;11.27;;;;;;;27.38;43.95;100403.30;2306762;76;50160;-76
2022/08/18 07:51:51;;;;;;;14.63;11.90;;;;;;;27.44;43.90;100400.97;2306479;76;51833;-76
2022/08/18 07:55:02;;;;;;;14.83;11.68;;;;;;;27.45;43.95;100405.32;2306828;76;50435;-76
2022/08/18 07:58:37;;;;;;;15.75;12.43;;;;;;;27.45;43.97;100408.85;2318430;76;50300;-77
2022/08/18 08:02:03;;;;;;;17.07;12.07;;;;;;;27.45;44.02;100411.56;2306457;76;50013;-76
2022/08/18 08:05:16;;;;;;;;;;;;;;;27.52;43.99;100409.52;2321381;76;51438;-78
2022/08/18 08:08:27;;;;;;;15.25;11.43;;;;;;;27.50;44.02;100419.80;2318591;76;50623;-77
2022/08/18 08:11:51;;;;;;;19.73;11.83;;;;;;;27.51;44.00;100430.98;2306083;76;52471;-76
2022/08/18 08:15:00;;;;;;;13.35;10.98;;;;;;;27.55;43.99;100425.86;2318400;76;50616;-76
2022/08/18 08:18:14;;;;;;;15.35;11.28;;;;;;;27.56;44.01;100438.36;2305985;76;50292;-76
2022/08/18 08:21:19;;;;;;;13.35;11.63;;;;;;;27.55;44.01;100432.66;2250956;78;52076;-76
2022/08/18 08:24:27;;;;;;;19.15;12.35;;;;;;;27.54;44.05;100430.98;2272212;78;50724;-76
2022/08/18 08:27:35;;;;;;;13.13;11.28;;;;;;;27.57;43.93;100428.61;2271810;78;51496;-77
2022/08/18 08:30:46;;;;;;;16.62;11.73;;;;;;;27.55;44.00;100432.11;2241091;78;49651;-76
2022/08/18 08:33:51;;;;;;;15.08;12.43;;;;;;;27.56;44.05;100430.21;2271064;78;50679;-76
2022/08/18 08:36:59;;;;;;;26.42;13.62;;;;;;;27.66;43.97;100429.55;2272092;78;50353;-76
2022/08/18 08:40:07;;;;;;;17.67;11.73;;;;;;;27.68;44.00;100436.92;2250026;76;51048;-76
2022/08/18 08:43:11;;;;;;;18.73;12.70;;;;;;;27.68;43.98;100435.02;2307071;76;51505;-76
2022/08/18 08:46:16;;;;;;;16.17;12.03;;;;;;;27.66;44.04;100426.28;2316972;76;50419;-77
2022/08/18 08:49:22;;;;;;;;;;;;;;;27.70;44.02;100429.34;2319594;76;53114;-77
2022/08/18 08:52:36;;;;;;;17.85;11.22;;;;;;;27.70;43.98;100429.34;2316899;76;50384;-76
2022/08/18 08:55:42;;;;;;;17.10;11.73;;;;;;;27.71;44.01;100431.80;2316792;76;50322;-77
2022/08/18 08:58:48;;;;;;;14.55;11.83;;;;;;;27.73;44.22;100428.84;2316235;76;53037;-76
2022/08/18 09:02:11;;;;;;;19.48;12.53;;;;;;;27.88;44.05;100431.81;2316584;76;50438;-76
2022/08/18 09:05:12;;;;;;;19.65;12.70;;;;;;;27.90;44.38;100429.67;2315748;76;22811;-76
2022/08/18 09:08:33;;;;;;;19.45;12.25;;;;;;;27.92;44.35;100426.69;2316993;76;50273;-76
2022/08/18 09:12:05;;;;;;;23.62;13.88;;;;;;;27.89;44.57;100420.39;2311072;76;51531;-77
2022/08/18 09:15:11;;;;;;;24.63;16.23;;;;;;;27.97;44.88;100418.05;2203875;79;51236;-77
2022/08/18 09:18:28;;;;;;;20.45;14.87;;;;;;;27.97;45.02;100413.97;2231671;78;50200;-77
2022/08/18 09:21:43;;;;;;;24.92;14.60;;;;;;;27.90;44.87;100420.66;2231875;79;50773;-77
2022/08/18 09:24:51;;;;;;;17.40;13.15;;;;;;;27.93;44.71;100411.48;2232078;79;50762;-76
2022/08/18 09:27:56;;;;;;;19.17;13.15;;;;;;;27.95;44.38;100411.22;2232137;78;50245;-76
2022/08/18 09:31:07;;;;;;;20.35;13.03;;;;;;;27.88;44.15;100407.34;2205867;79;49565;-76
2022/08/18 09:34:31;;;;;;;20.35;12.18;;;;;;;27.82;44.34;100401.52;2231580;79;50216;-75
2022/08/18 09:37:45;;;;;;;21.97;12.95;;;;;;;27.95;44.05;100403.06;2231161;78;51526;-77
2022/08/18 09:44:13;;;;;;;21.17;13.30;;;;;;;28.08;43.61;100403.22;2223561;79;22431;-76
2022/08/18 09:47:27;;;;;;;19.25;12.30;;;;;;;28.04;43.47;100398.02;2312178;76;50619;-77
2022/08/18 09:50:36;;;;;;;21.40;12.00;;;;;;;28.10;42.99;100401.08;2302677;75;50374;-76
2022/08/18 09:53:53;;;;;;;18.27;12.35;;;;;;;28.19;42.94;100398.21;2276344;76;51556;-76
2022/08/18 09:56:57;;;;;;;14.85;11.53;;;;;;;28.20;42.76;100382.98;2275954;77;50137;-76
2022/08/18 10:00:13;;;;;;;17.95;11.90;;;;;;;28.20;42.05;100388.42;2275255;76;51601;-76
2022/08/18 10:03:15;;;;;;;15.38;11.30;;;;;;;28.15;42.16;100392.44;2295092;76;22374;-76
2022/08/18 10:06:18;;;;;;;24.50;11.93;;;;;;;28.31;42.11;100383.95;2274296;76;51299;-77
2022/08/18 10:09:27;;;;;;;15.58;11.40;;;;;;;28.35;42.24;100379.62;2297800;76;51511;-77
2022/08/18 10:12:44;;;;;;;15.80;11.78;;;;;;;28.27;42.32;100380.08;2298769;75;51522;-77
2022/08/18 10:15:49;;;;;;;13.70;11.03;;;;;;;28.43;41.58;100365.55;2316234;76;50766;-76
2022/08/18 10:19:19;;;;;;;13.30;10.03;;;;;;;28.61;40.36;100358.14;2316582;76;50729;-77
2022/08/18 10:22:42;;;;;;;14.90;10.10;;;;;;;28.39;40.99;100357.63;2292596;76;49630;-76
2022/08/18 10:25:51;;;;;;;12.40;10.00;;;;;;;28.40;40.75;100360.62;2316087;76;51579;-76
2022/08/18 10:28:53;;;;;;;13.93;9.95;;;;;;;28.35;40.83;100363.29;2314681;75;22509;-77
2022/08/18 10:31:58;;;;;;;12.65;10.43;;;;;;;28.33;41.14;100361.36;2267084;76;52738;-76
2022/08/18 10:35:01;;;;;;;15.23;10.43;;;;;;;28.49;40.66;100367.84;2316743;76;50335;-76
2022/08/18 10:38:20;;;;;;;14.65;10.18;;;;;;;28.53;40.77;100362.69;2292164;76;50676;-76
2022/08/18 10:41:25;;;;;;;12.00;10.03;;;;;;;28.46;40.77;100368.87;2297508;76;50275;-76
2022/08/18 10:44:28;;;;;;;11.53;10.18;;;;;;;28.32;40.94;100372.52;2315698;76;50234;-77
2022/08/18 10:47:30;;;;;;;14.87;10.13;;;;;;;28.33;41.23;100365.98;2276379;76;51224;-77
2022/08/18 10:50:50;;;;;;;15.65;10.20;;;;;;;28.21;41.58;100367.50;2298364;76;50193;-78
2022/08/18 10:54:08;;;;;;;13.25;9.80;;;;;;;28.20;41.85;100360.39;2298087;76;51541;-79
2022/08/18 10:57:19;;;;;;;16.40;9.35;;;;;;;28.35;41.15;100355.13;2282942;75;51404;-76
2022/08/18 11:00:21;;;;;;;12.90;8.90;;;;;;;28.45;39.99;100354.45;2312847;76;50780;-78
2022/08/18 11:03:33;;;;;;;15.13;9.18;;;;;;;28.57;39.91;100351.59;2266949;76;51471;-77
2022/08/18 11:06:41;;;;;;;13.90;9.75;;;;;;;28.53;39.77;100353.17;2305732;77;51166;-77
2022/08/18 11:09:43;;;;;;;13.20;9.13;;;;;;;28.59;39.84;100350.77;2309300;77;50347;-77
2022/08/18 11:12:51;;;;;;;14.80;8.63;;;;;;;28.70;39.38;100338.91;2254862;77;50141;-76
2022/08/18 11:15:56;;;;;;;11.68;8.05;;;;;;;28.79;38.48;100333.25;2310399;77;50805;-77
2022/08/18 11:19:05;;;;;;;14.30;8.33;;;;;;;28.83;38.13;100338.48;2310780;76;50710;-77
2022/08/18 11:22:07;;;;;;;10.75;7.42;;;;;;;28.82;37.56;100340.94;2279726;77;51335;-77
2022/08/18 11:25:25;;;;;;;12.15;7.85;;;;;;;28.81;38.26;100335.73;2255505;77;51700;-77
2022/08/18 11:28:28;;;;;;;9.33;8.23;;;;;;;28.91;37.82;100339.09;2298764;75;51450;-76
2022/08/18 11:31:30;;;;;;;11.00;8.63;;;;;;;28.77;38.67;100339.53;2254515;77;51630;-77
2022/08/18 11:34:48;;;;;;;11.60;8.38;;;;;;;28.74;38.59;100326.41;2307417;77;50685;-77
2022/08/18 11:37:58;;;;;;;10.10;7.35;;;;;;;28.79;38.66;100329.17;2295068;76;49786;-76
2022/08/18 11:41:23;;;;;;;10.25;7.75;;;;;;;28.65;38.58;100330.16;2291345;77;51669;-76
2022/08/18 11:44:27;;;;;;;7.10;6.50;;;;;;;28.74;38.17;100332.39;2311313;75;22310;-76
2022/08/18 11:47:29;;;;;;;11.40;6.90;;;;;;;28.84;36.78;100328.41;2278959;77;52532;-75
2022/08/18 11:50:32;;;;;;;11.78;7.60;;;;;;;28.85;37.42;100325.43;2279452;77;51518;-76
2022/08/18 11:53:43;;;;;;;12.93;7.37;;;;;;;28.73;37.77;100321.23;2310530;77;51465;-76
2022/08/18 11:56:46;;;;;;;9.60;7.78;;;;;;;28.80;37.52;100321.30;2256229;77;50731;-76
2022/08/18 11:59:49;;;;;;;14.13;8.08;;;;;;;28.90;37.24;100316.45;2279451;77;50265;-77
2022/08/18 12:03:03;;;;;;;11.70;7.60;;;;;;;29.08;37.07;100317.47;2279672;77;51610;-77
2022/08/18 12:06:23;;;;;;;10.90;8.05;;;;;;;28.92;37.35;100314.30;2299278;76;51553;-77
2022/08/18 12:09:42;;;;;;;12.25;7.45;;;;;;;29.22;36.16;100312.92;2299594;77;50621;-77
2022/08/18 12:12:46;;;;;;;14.75;7.65;;;;;;;29.40;35.56;100308.39;2281278;77;51015;-76
2022/08/18 12:15:50;;;;;;;8.68;7.05;;;;;;;29.38;35.54;100315.20;2282161;77;51614;-76
2022/08/18 12:18:52;;;;;;;10.95;6.60;;;;;;;29.22;36.27;100315.64;2280250;77;50677;-76
2022/08/18 12:21:57;;;;;;;8.80;7.35;;;;;;;29.44;34.70;100313.61;2281412;77;51474;-76
2022/08/18 12:24:59;;;;;;;10.72;7.12;;;;;;;29.36;35.29;100310.55;2312652;77;51955;-76
2022/08/18 12:28:02;;;;;;;8.98;7.08;;;;;;;29.57;34.66;100308.22;2280922;77;51233;-77
2022/08/18 12:31:04;;;;;;;10.93;7.40;;;;;;;29.52;35.37;100309.56;2256353;77;52203;-77
2022/08/18 12:34:06;;;;;;;12.65;7.30;;;;;;;29.34;35.67;100293.63;2281603;77;51414;-77
2022/08/18 12:37:09;;;;;;;9.50;7.12;;;;;;;29.49;35.37;100304.61;2277665;77;50056;-78
2022/08/18 12:40:12;;;;;;;13.40;7.28;;;;;;;29.39;35.61;100296.38;2278760;77;51374;-77
2022/08/18 12:43:14;;;;;;;10.43;7.97;;;;;;;29.54;35.55;100289.64;2310694;77;50108;-77
2022/08/18 12:46:17;;;;;;;10.65;7.10;;;;;;;29.64;35.29;100286.97;2279199;77;50731;-76
2022/08/18 12:49:21;;;;;;;15.03;7.87;;;;;;;29.73;34.61;100274.50;2310765;77;50265;-76
2022/08/18 12:52:23;;;;;;;13.10;7.80;;;;;;;29.66;35.06;100268.47;2279317;77;50034;-77
2022/08/18 12:55:27;;;;;;;12.63;8.30;;;;;;;29.71;35.25;100271.22;2310737;77;50210;-77
2022/08/18 12:58:29;;;;;;;12.60;8.05;;;;;;;29.92;34.99;100269.92;2310524;77;51500;-77
2022/08/18 13:01:32;;;;;;;13.08;7.90;;;;;;;29.93;34.92;100274.31;2254481;77;50097;-76
2022/08/18 13:04:34;;;;;;;8.50;7.70;;;;;;;29.81;34.53;100273.16;2310499;76;51487;-76
2022/08/18 13:07:37;;;;;;;12.45;7.67;;;;;;;29.63;35.27;100268.98;2279463;77;51515;-78
2022/08/18 13:10:39;;;;;;;11.08;8.30;;;;;;;29.74;34.78;100262.49;2254637;77;51440;-76
2022/08/18 13:13:41;;;;;;;9.50;8.38;;;;;;;29.79;34.94;100255.43;2310501;77;51399;-77
2022/08/18 13:16:44;;;;;;;13.62;9.45;;;;;;;29.82;35.13;100260.34;2279374;77;49585;-79
2022/08/18 13:19:47;;;;;;;12.68;8.20;;;;;;;29.95;34.94;100254.37;2255011;77;50224;-76
2022/08/18 13:22:49;;;;;;;11.05;8.23;;;;;;;29.82;35.36;100250.80;2310979;77;51485;-75
2022/08/18 13:25:51;;;;;;;14.00;8.35;;;;;;;29.61;35.51;100240.34;2279494;77;50049;-76
2022/08/18 13:28:54;;;;;;;11.40;8.83;;;;;;;29.59;35.42;100241.95;2310718;77;51453;-77
2022/08/18 13:31:59;;;;;;;15.03;8.83;;;;;;;29.80;35.06;100240.70;2279963;77;50320;-77
2022/08/18 13:35:01;;;;;;;9.25;8.25;;;;;;;29.82;35.15;100243.98;2280783;77;50324;-77
2022/08/18 13:38:06;;;;;;;10.90;8.58;;;;;;;30.11;34.23;100234.23;2306257;77;51402;-76
2022/08/18 13:41:07;;;;;;;13.58;8.98;;;;;;;30.25;33.43;100233.73;2302662;77;22248;-79
2022/08/18 13:44:11;;;;;;;13.90;8.93;;;;;;;29.99;34.38;100229.57;2271605;77;50341;-79
2022/08/18 13:47:14;;;;;;;14.40;8.77;;;;;;;29.95;34.67;100229.30;2302816;77;51474;-81
2022/08/18 13:50:16;;;;;;;15.72;9.30;;;;;;;30.13;34.49;100232.06;2246330;77;51245;-78
2022/08/18 13:53:18;;;;;;;10.85;9.70;;;;;;;30.15;34.87;100226.31;2271687;77;51421;-77
2022/08/18 13:56:21;;;;;;;19.10;9.93;;;;;;;30.26;35.45;100223.08;2271408;77;52590;-77
2022/08/18 13:59:23;;;;;;;14.63;10.20;;;;;;;30.33;35.69;100228.55;2271834;77;51483;-77
2022/08/18 14:02:25;;;;;;;14.25;9.73;;;;;;;30.15;36.09;100218.12;2302883;77;51476;-77
2022/08/18 14:05:27;;;;;;;17.07;10.20;;;;;;;30.07;36.27;100211.30;2295890;77;50387;-76
2022/08/18 14:08:30;;;;;;;15.80;10.40;;;;;;;30.07;36.34;100211.84;2221822;78;50041;-78
2022/08/18 14:11:33;;;;;;;15.75;10.90;;;;;;;30.18;36.13;100206.66;2246231;78;50056;-76
2022/08/18 14:14:35;;;;;;;14.03;10.20;;;;;;;30.24;36.03;100205.63;2269634;78;51431;-76
2022/08/18 14:17:37;;;;;;;12.28;9.90;;;;;;;30.27;35.90;100202.90;2246495;78;50313;-76
2022/08/18 14:27:22;;;;;;;12.05;10.00;;;;;;;30.12;36.23;100193.57;2250978;78;22390;-75
2022/08/18 14:30:24;;;;;;;14.73;10.30;;;;;;;30.06;36.46;100186.48;2248273;78;51808;-80
2022/08/18 14:33:28;;;;;;;11.65;9.53;;;;;;;30.07;36.49;100190.84;2250814;77;51656;-76
2022/08/18 14:36:30;;;;;;;11.40;9.50;;;;;;;29.98;36.60;100193.84;2301827;76;51615;-75
2022/08/18 14:39:32;;;;;;;15.25;9.85;;;;;;;29.93;36.37;100198.73;2280972;76;50093;-77